createdAt,value
2023-03-17T00:01:08.202Z,97468.16
2023-03-17T00:05:24.181Z,97467.31
2023-03-17T00:09:26.845Z,97471.81
2023-03-17T00:13:32.077Z,97464.50
2023-03-17T00:17:34.742Z,97462.66
2023-03-17T00:21:38.901Z,97462.47
2023-03-17T00:25:43.235Z,97442.91
2023-03-17T00:29:46.977Z,97438.88
2023-03-17T00:33:52.182Z,97431.75
2023-03-17T00:37:58.396Z,97436.59
2023-03-17T00:42:00.996Z,97430.91
2023-03-17T00:46:10.987Z,97417.75
2023-03-17T00:50:15.965Z,97419.66
2023-03-17T00:54:21.571Z,97411.53
2023-03-17T00:58:28.817Z,97406.72
2023-03-17T01:02:32.287Z,97400.50
2023-03-17T01:06:34.976Z,97402.13
2023-03-17T01:10:39.224Z,97406.31
2023-03-17T01:14:42.265Z,97401.13
2023-03-17T01:18:45.638Z,97393.63
2023-03-17T01:22:49.022Z,97386.25
2023-03-17T01:26:53.024Z,97376.25
2023-03-17T01:30:56.764Z,97364.91
2023-03-17T01:34:59.810Z,97363.91
2023-03-17T01:39:03.386Z,97345.59
2023-03-17T01:43:19.719Z,97345.59
2023-03-17T01:47:23.696Z,97346.31
2023-03-17T01:51:33.004Z,97341.69
2023-03-17T01:55:35.889Z,97324.06
2023-03-17T01:59:45.451Z,97319.84
2023-03-17T02:03:49.478Z,97324.88
2023-03-17T02:07:52.910Z,97329.53
2023-03-17T02:11:56.452Z,97313.03
2023-03-17T02:16:00.437Z,97324.66
2023-03-17T02:20:29.377Z,97333.66
2023-03-17T02:24:38.576Z,97322.78
2023-03-17T02:28:41.224Z,97323.31
2023-03-17T02:32:44.190Z,97315.31
2023-03-17T02:36:47.529Z,97318.97
2023-03-17T02:40:51.944Z,97305.78
2023-03-17T02:44:54.959Z,97302.31
2023-03-17T02:48:57.818Z,97308.97
2023-03-17T02:53:00.754Z,97308.13
2023-03-17T02:57:05.225Z,97306.78
2023-03-17T03:01:09.127Z,97304.13
2023-03-17T03:05:11.786Z,97313.75
2023-03-17T03:09:15.145Z,97302.19
2023-03-17T03:13:19.112Z,97294.47
2023-03-17T03:17:22.126Z,97305.44
2023-03-17T03:21:25.028Z,97289.34
2023-03-17T03:25:27.912Z,97282.88
2023-03-17T03:29:32.039Z,97290.88
2023-03-17T03:33:34.928Z,97289.00
2023-03-17T03:37:37.601Z,97303.13
2023-03-17T03:41:41.202Z,97302.84
2023-03-17T03:45:45.219Z,97298.78
2023-03-17T03:49:47.897Z,97294.13
2023-03-17T03:53:50.877Z,97293.31
2023-03-17T03:57:53.538Z,97291.31
2023-03-17T04:01:57.639Z,97299.13
2023-03-17T04:06:00.435Z,97293.75
2023-03-17T04:10:03.229Z,97280.25
2023-03-17T04:14:06.430Z,97282.91
2023-03-17T04:18:10.579Z,97280.09
2023-03-17T04:22:13.390Z,97279.72
2023-03-17T04:26:17.798Z,97278.66
2023-03-17T04:30:20.577Z,97279.28
2023-03-17T04:34:24.815Z,97285.03
2023-03-17T04:38:27.474Z,97275.59
2023-03-17T04:42:30.475Z,97274.09
2023-03-17T04:46:33.201Z,97263.53
2023-03-17T04:50:37.152Z,97271.09
2023-03-17T04:54:39.849Z,97272.22
2023-03-17T04:58:42.602Z,97268.44
2023-03-17T05:02:45.279Z,97267.97
2023-03-17T05:06:49.285Z,97273.44
2023-03-17T05:10:52.657Z,97266.50
2023-03-17T05:14:55.467Z,97286.66
2023-03-17T05:18:58.128Z,97304.44
2023-03-17T05:23:02.130Z,97282.84
2023-03-17T05:27:04.991Z,97276.69
2023-03-17T05:31:10.846Z,97261.16
2023-03-17T05:35:14.268Z,97262.00
2023-03-17T05:39:18.234Z,97270.13
2023-03-17T05:43:22.227Z,97268.28
2023-03-17T05:47:24.939Z,97285.13
2023-03-17T05:51:28.301Z,97298.44
2023-03-17T05:55:32.368Z,97304.59
2023-03-17T05:59:35.252Z,97285.28
2023-03-17T06:03:39.077Z,97272.78
2023-03-17T06:07:53.086Z,97270.34
2023-03-17T06:11:59.353Z,97278.38
2023-03-17T06:16:02.211Z,97287.56
2023-03-17T06:20:05.439Z,97283.09
2023-03-17T06:24:09.590Z,97282.47
2023-03-17T06:28:13.611Z,97273.31
2023-03-17T06:32:20.599Z,97282.16
2023-03-17T06:36:23.637Z,97281.50
2023-03-17T06:40:26.482Z,97268.31
2023-03-17T06:44:30.465Z,97265.53
2023-03-17T06:48:34.007Z,97271.72
2023-03-17T06:52:37.090Z,97275.44
2023-03-17T06:56:39.781Z,97266.75
2023-03-17T07:00:45.481Z,97262.59
2023-03-17T07:04:48.399Z,97259.41
2023-03-17T07:08:52.386Z,97263.69
2023-03-17T07:12:55.318Z,97266.13
2023-03-17T07:17:00.321Z,97266.66
2023-03-17T07:21:03.518Z,97258.44
2023-03-17T07:25:07.879Z,97255.91
2023-03-17T07:29:10.494Z,97256.31
2023-03-17T07:33:14.683Z,97263.78
2023-03-17T07:37:17.605Z,97264.59
2023-03-17T07:41:20.430Z,97261.91
2023-03-17T07:45:23.383Z,97259.91
2023-03-17T07:49:40.522Z,97268.50
2023-03-17T07:53:45.351Z,97256.75
2023-03-17T07:57:48.075Z,97271.09
2023-03-17T08:01:51.869Z,97267.47
2023-03-17T08:05:56.053Z,97269.88
2023-03-17T08:09:58.880Z,97269.31
2023-03-17T08:14:02.628Z,97263.25
2023-03-17T08:18:05.343Z,97267.69
2023-03-17T08:22:09.868Z,97262.63
2023-03-17T08:26:14.334Z,97257.34
2023-03-17T08:30:17.527Z,97252.28
2023-03-17T08:34:25.275Z,97245.41
2023-03-17T08:38:29.300Z,97249.13
2023-03-17T08:42:33.086Z,97237.22
2023-03-17T08:46:36.240Z,97230.91
2023-03-17T08:50:38.958Z,97219.75
2023-03-17T08:54:43.185Z,97214.00
2023-03-17T08:58:46.815Z,97221.13
2023-03-17T09:02:50.135Z,97220.09
2023-03-17T09:07:03.454Z,97220.53
2023-03-17T09:11:10.666Z,97234.03
2023-03-17T09:15:13.762Z,97241.97
2023-03-17T09:19:17.830Z,97223.91
2023-03-17T09:23:20.842Z,97227.16
2023-03-17T09:27:25.251Z,97218.41
2023-03-17T09:31:27.970Z,97203.13
2023-03-17T09:35:31.587Z,97198.41
2023-03-17T09:39:36.445Z,97196.84
2023-03-17T09:43:50.170Z,97189.56
2023-03-17T09:48:18.215Z,97187.59
2023-03-17T09:52:28.313Z,97184.81
2023-03-17T09:56:33.719Z,97169.84
2023-03-17T10:00:38.216Z,97175.91
2023-03-17T10:04:42.731Z,97174.41
2023-03-17T10:08:52.450Z,97158.38
2023-03-17T10:13:03.879Z,97159.84
2023-03-17T10:17:16.374Z,97159.09
2023-03-17T10:21:22.509Z,97165.03
2023-03-17T10:25:29.818Z,97154.53
2023-03-17T10:29:32.969Z,97168.63
2023-03-17T10:33:37.017Z,97158.69
2023-03-17T10:37:43.294Z,97157.94
2023-03-17T10:41:56.963Z,97151.66
2023-03-17T10:46:03.213Z,97144.75
2023-03-17T10:50:18.939Z,97147.47
2023-03-17T10:54:25.249Z,97140.72
2023-03-17T10:58:38.445Z,97134.59
2023-03-17T11:02:46.871Z,97127.41
2023-03-17T11:06:52.422Z,97121.63
2023-03-17T11:10:57.610Z,97128.28
2023-03-17T11:15:02.197Z,97108.34
2023-03-17T11:19:09.208Z,97101.75
2023-03-17T11:23:27.311Z,97108.56
2023-03-17T11:27:33.690Z,97101.66
2023-03-17T11:31:46.803Z,97097.06
2023-03-17T11:35:55.892Z,97088.94
2023-03-17T11:40:13.214Z,97089.88
2023-03-17T11:44:40.364Z,97084.75
2023-03-17T11:48:51.103Z,97079.63
2023-03-17T11:53:05.579Z,97085.94
2023-03-17T11:57:16.257Z,97080.66
2023-03-17T12:01:27.180Z,97062.22
2023-03-17T12:05:31.625Z,97049.75
2023-03-17T12:09:40.177Z,97044.66
2023-03-17T12:13:47.641Z,97041.75
2023-03-17T12:17:55.263Z,97041.66
2023-03-17T12:22:02.223Z,97033.25
2023-03-17T12:26:07.473Z,97034.56
2023-03-17T12:30:23.076Z,97018.75
2023-03-17T12:34:32.120Z,97028.09
2023-03-17T12:38:39.525Z,97021.75
2023-03-17T12:42:53.726Z,97018.97
2023-03-17T12:47:24.996Z,97014.56
2023-03-17T12:51:50.836Z,97015.22
2023-03-17T12:55:57.132Z,96997.69
2023-03-17T13:00:06.186Z,96988.41
2023-03-17T13:04:19.192Z,96993.59
2023-03-17T13:08:28.285Z,97000.47
2023-03-17T13:13:08.906Z,96993.31
2023-03-17T13:17:35.793Z,96996.84
2023-03-17T13:21:40.134Z,96994.94
2023-03-17T13:25:53.334Z,96980.72
2023-03-17T13:29:56.561Z,96974.13
2023-03-17T13:34:13.122Z,96965.69
2023-03-17T13:38:42.140Z,96963.78
2023-03-17T13:42:59.639Z,96965.69
2023-03-17T13:47:29.552Z,96961.50
2023-03-17T13:51:35.143Z,96956.94
2023-03-17T13:55:43.177Z,96952.28
2023-03-17T13:59:58.658Z,96950.16
2023-03-17T14:04:08.817Z,96950.03
2023-03-17T14:08:18.351Z,96940.34
2023-03-17T14:12:28.333Z,96926.53
2023-03-17T14:16:34.160Z,96921.34
2023-03-17T14:20:37.005Z,96921.34
2023-03-17T14:24:40.991Z,96923.66
2023-03-17T14:28:45.159Z,96921.59
2023-03-17T14:32:52.159Z,96920.56
2023-03-17T14:36:54.838Z,96922.25
2023-03-17T14:41:02.932Z,96911.47
2023-03-17T14:45:09.589Z,96908.28
2023-03-17T14:49:18.605Z,96905.56
2023-03-17T14:53:24.073Z,96892.34
2023-03-17T14:57:29.052Z,96891.47
2023-03-17T15:01:38.726Z,96889.56
2023-03-17T15:05:43.891Z,96882.38
2023-03-17T15:09:46.604Z,96879.56
2023-03-17T15:13:50.746Z,96881.63
2023-03-17T15:17:57.904Z,96879.47
2023-03-17T15:22:00.717Z,96877.97
2023-03-17T15:26:09.392Z,96893.06
2023-03-17T15:30:13.690Z,96886.41
2023-03-17T15:34:18.093Z,96884.25
2023-03-17T15:38:21.549Z,96883.91
2023-03-17T15:42:27.012Z,96889.28
2023-03-17T15:46:32.568Z,96890.22
2023-03-17T15:50:36.698Z,96889.34
2023-03-17T15:54:39.338Z,96879.44
2023-03-17T15:58:42.070Z,96882.66
2023-03-17T16:02:45.492Z,96879.13
2023-03-17T16:06:49.845Z,96872.81
2023-03-17T16:10:53.027Z,96865.25
2023-03-17T16:14:55.960Z,96864.09
2023-03-17T16:18:59.143Z,96851.00
2023-03-17T16:23:08.486Z,96847.81
2023-03-17T16:27:15.745Z,96838.22
2023-03-17T16:31:24.892Z,96843.94
2023-03-17T16:35:27.743Z,96848.53
2023-03-17T16:39:32.155Z,96850.84
2023-03-17T16:43:37.805Z,96840.09
2023-03-17T16:47:40.338Z,96844.34
2023-03-17T16:51:43.528Z,96853.84
2023-03-17T16:55:47.997Z,96849.78
2023-03-17T16:59:51.148Z,96843.22
2023-03-17T17:03:54.291Z,96848.16
2023-03-17T17:07:58.107Z,96850.31
2023-03-17T17:12:02.076Z,96845.91
2023-03-17T17:16:04.868Z,96834.78
2023-03-17T17:20:13.446Z,96843.56
2023-03-17T17:24:16.521Z,96841.75
2023-03-17T17:28:23.103Z,96835.84
2023-03-17T17:32:25.744Z,96834.66
2023-03-17T17:36:28.878Z,96835.81
2023-03-17T17:40:32.778Z,96853.28
2023-03-17T17:44:37.249Z,96857.97
2023-03-17T17:48:41.051Z,96868.75
2023-03-17T17:52:43.760Z,96865.22
2023-03-17T17:56:47.177Z,96864.53
2023-03-17T18:00:52.588Z,96869.34
2023-03-17T18:04:55.752Z,96867.38
2023-03-17T18:08:59.299Z,96865.84
2023-03-17T18:13:02.111Z,96864.66
2023-03-17T18:17:07.054Z,96867.47
2023-03-17T18:21:10.907Z,96876.25
2023-03-17T18:25:15.396Z,96877.72
2023-03-17T18:29:18.387Z,96879.03
2023-03-17T18:33:22.566Z,96872.75
2023-03-17T18:37:25.731Z,96882.16
2023-03-17T18:41:29.210Z,96890.63
2023-03-17T18:45:32.097Z,96894.00
2023-03-17T18:49:36.232Z,96889.97
2023-03-17T18:53:39.236Z,96882.53
2023-03-17T18:57:44.753Z,96882.63
2023-03-17T19:01:47.799Z,96886.91
2023-03-17T19:05:51.897Z,96884.00
2023-03-17T19:09:55.145Z,96886.66
2023-03-17T19:13:58.345Z,96878.47
2023-03-17T19:18:01.062Z,96876.91
2023-03-17T19:22:06.487Z,96877.56
2023-03-17T19:26:10.345Z,96874.31
2023-03-17T19:30:14.553Z,96867.84
2023-03-17T19:34:17.384Z,96867.56
2023-03-17T19:38:21.586Z,96873.25
2023-03-17T19:42:24.467Z,96865.44
2023-03-17T19:46:27.325Z,96864.81
2023-03-17T19:50:32.787Z,96864.25
2023-03-17T19:54:42.037Z,96855.78
2023-03-17T19:58:45.165Z,96863.91
2023-03-17T20:02:48.072Z,96880.78
2023-03-17T20:06:55.583Z,96871.28
2023-03-17T20:10:59.675Z,96865.91
2023-03-17T20:15:02.881Z,96878.56
2023-03-17T20:19:06.002Z,96879.13
2023-03-17T20:23:08.777Z,96876.28
2023-03-17T20:27:15.257Z,96880.44
2023-03-17T20:31:18.765Z,96885.00
2023-03-17T20:35:21.480Z,96883.81
2023-03-17T20:39:24.257Z,96877.41
2023-03-17T20:43:28.389Z,96891.94
2023-03-17T20:47:31.973Z,96886.75
2023-03-17T20:51:35.933Z,96885.75
2023-03-17T20:55:38.644Z,96883.47
2023-03-17T20:59:43.865Z,96894.00
2023-03-17T21:03:47.123Z,96892.56
2023-03-17T21:07:50.170Z,96895.06
2023-03-17T21:11:52.853Z,96887.78
2023-03-17T21:15:57.064Z,96900.00
2023-03-17T21:19:59.969Z,96899.34
2023-03-17T21:24:03.068Z,96907.97
2023-03-17T21:28:06.213Z,96905.47
2023-03-17T21:32:10.926Z,96919.66
2023-03-17T21:36:13.645Z,96918.13
2023-03-17T21:40:16.955Z,96936.91
2023-03-17T21:44:20.064Z,96939.78
2023-03-17T21:48:24.044Z,96938.28
2023-03-17T21:52:27.034Z,96937.88
2023-03-17T21:56:29.872Z,96924.22
2023-03-17T22:00:39.388Z,96918.88
2023-03-17T22:04:48.922Z,96915.53
2023-03-17T22:08:51.582Z,96927.44
2023-03-17T22:12:54.328Z,96926.97
2023-03-17T22:16:57.442Z,96927.31
2023-03-17T22:21:01.737Z,96926.22
2023-03-17T22:25:05.551Z,96928.19
2023-03-17T22:29:08.197Z,96933.50
2023-03-17T22:33:11.618Z,96932.81
2023-03-17T22:37:15.618Z,96931.13
2023-03-17T22:41:20.745Z,96927.69
2023-03-17T22:45:23.502Z,96944.25
2023-03-17T22:49:26.221Z,96939.91
2023-03-17T22:53:31.547Z,96936.88
2023-03-17T22:57:34.539Z,96938.84
2023-03-17T23:01:37.385Z,96943.81
2023-03-17T23:05:40.148Z,96949.97
2023-03-17T23:09:45.288Z,96936.06
2023-03-17T23:13:48.799Z,96950.22
2023-03-17T23:17:54.055Z,96965.22
2023-03-17T23:21:56.834Z,96966.16
2023-03-17T23:26:00.852Z,96949.91
2023-03-17T23:30:03.861Z,96963.19
2023-03-17T23:34:07.637Z,96967.25
2023-03-17T23:38:10.379Z,96964.31
2023-03-17T23:42:14.444Z,96960.53
2023-03-17T23:46:17.238Z,96973.78
2023-03-17T23:50:20.904Z,96986.91
2023-03-17T23:54:24.109Z,96967.63
2023-03-17T23:58:28.501Z,96970.19
